메인 페이지
METAR-TAF:

METAR-TAF

공항 :

Oban, 스코틀랜드

위도: 56-27-49N, 경도: 5-24-00W, 고도: 7m

현재 날씨관측

예보는 39분 전, 15:50시(UTC)에 발표되었습니다.
8kt
온도 16°C
습도 77%
기압 1016 hPa
시정 10km 이상
고도 1800ft 상공 구름 조금
고도 3000ft 상공 구름 많음

METAR: EGEO 201550Z 28008KT 9999 FEW018 BKN030 16/12 Q1016

시각: 17:29 (16:29 UTC)

예보

예보는 2 시간 28분 전, 14:01시(UTC)에 발표되었습니다.
예보 대상 시간: 20일 15시부터 20일 17시까지 (UTC)
서남서9kt
시정 10km 이상
고도 3000ft 상공 구름 보통
확률 30% :
일시적
20일 15시부터 20일 17시까지 (UTC)
고도 1200ft 상공 구름 많음

TAF: EGEO 201401Z 2015/2017 24009KT 9999 SCT030 PROB30 TEMPO 2015/2017 BKN012

4,000개 이상의 공항 관측 자료 및 예보 (METAR 및 TAF 보고).

지도상에서 검색 가능한 기상관측소가 노란 점과 빨간 점으로 표시되어 있습니다.

기상관측소 명을 보려면 표시 위로 마우스를 이동하세요.

날씨 관측과 예보를 보려면 클릭하세요.

지도 변경 : 확대하려면 엑스 표시가 있는 녹색 버튼, 축소하려면 빼기 표시가 있는 녹색 버튼, 다음 페이지의 지도를 보려면 녹색 화살표를 클릭하세요.


METAR-TAF: